createdAt,value
2019-01-28T05:00:18.435Z,0
2019-01-28T05:03:46.313Z,0
2019-01-28T05:07:14.235Z,0
2019-01-28T05:10:42.102Z,0
2019-01-28T05:14:09.993Z,0
2019-01-28T05:17:37.913Z,0
2019-01-28T05:21:05.797Z,0
2019-01-28T05:24:33.684Z,0
2019-01-28T05:28:01.554Z,0
2019-01-28T05:31:29.445Z,0
2019-01-28T05:34:57.330Z,0
2019-01-28T05:38:25.204Z,0
2019-01-28T05:41:54.092Z,0
2019-01-28T05:45:21.984Z,0
2019-01-28T05:48:49.869Z,0
2019-01-28T05:52:17.753Z,0
2019-01-28T05:55:45.638Z,0
2019-01-28T05:59:14.509Z,0
2019-01-28T06:02:42.400Z,0
2019-01-28T06:06:10.293Z,0
2019-01-28T06:09:38.167Z,0
2019-01-28T06:13:06.061Z,0
2019-01-28T06:16:33.957Z,0
2019-01-28T06:20:01.836Z,0
2019-01-28T06:23:29.725Z,0
2019-01-28T06:26:57.617Z,1
2019-01-28T06:30:25.499Z,1
2019-01-28T06:33:53.385Z,1
2019-01-28T06:37:21.294Z,2
2019-01-28T06:40:49.174Z,4
2019-01-28T06:44:18.052Z,9
2019-01-28T06:47:47.928Z,16
2019-01-28T06:51:15.820Z,31
2019-01-28T06:54:43.709Z,51
2019-01-28T06:58:11.601Z,71
2019-01-28T07:01:39.488Z,90
2019-01-28T07:05:07.383Z,112
2019-01-28T07:08:35.279Z,136
2019-01-28T07:12:03.173Z,166
2019-01-28T07:15:31.092Z,221
2019-01-28T07:18:58.963Z,268
2019-01-28T07:22:26.852Z,301
2019-01-28T07:25:54.743Z,328
2019-01-28T07:29:22.625Z,307
2019-01-28T07:32:50.518Z,305
2019-01-28T07:36:18.407Z,315
2019-01-28T07:39:46.277Z,308
2019-01-28T07:43:14.166Z,332
2019-01-28T07:46:42.063Z,325
2019-01-28T07:50:10.929Z,379
2019-01-28T07:53:38.818Z,492
2019-01-28T07:57:07.713Z,543
2019-01-28T08:00:35.588Z,855
2019-01-28T08:04:03.490Z,1030
2019-01-28T08:07:31.383Z,1332
2019-01-28T08:10:59.270Z,1318
2019-01-28T08:14:27.185Z,1329
2019-01-28T08:17:55.074Z,1342
2019-01-28T08:21:23.979Z,1293
2019-01-28T08:24:51.851Z,1433
2019-01-28T08:28:19.752Z,1488
2019-01-28T08:31:47.628Z,1431
2019-01-28T08:35:15.538Z,1401
2019-01-28T08:38:43.440Z,1112
2019-01-28T08:42:11.327Z,1209
2019-01-28T08:45:40.194Z,1381
2019-01-28T08:49:08.080Z,1489
2019-01-28T08:52:35.988Z,1466
2019-01-28T08:56:03.869Z,1243
2019-01-28T08:59:31.767Z,1505
2019-01-28T09:02:59.662Z,1612
2019-01-28T09:06:27.539Z,1699
2019-01-28T09:09:55.428Z,2344
2019-01-28T09:13:23.318Z,2686
2019-01-28T09:16:51.193Z,3135
2019-01-28T09:20:19.090Z,3244
2019-01-28T09:23:46.989Z,3479
2019-01-28T09:27:14.912Z,3907
2019-01-28T09:30:42.782Z,4278
2019-01-28T09:34:10.678Z,4265
2019-01-28T09:37:38.588Z,5446
2019-01-28T09:41:06.464Z,4531
2019-01-28T09:44:34.354Z,4591
2019-01-28T09:48:02.246Z,4297
2019-01-28T09:51:30.121Z,4447
2019-01-28T09:54:58.011Z,4618
2019-01-28T09:58:25.910Z,5728
2019-01-28T10:01:53.783Z,4941
2019-01-28T10:05:21.681Z,5223
2019-01-28T10:08:49.560Z,5081
2019-01-28T10:12:17.434Z,4763
2019-01-28T10:15:45.330Z,4333
2019-01-28T10:19:13.224Z,3992
2019-01-28T10:22:42.090Z,3133
2019-01-28T10:26:09.986Z,3021
2019-01-28T10:29:37.886Z,3227
2019-01-28T10:33:05.768Z,2900
2019-01-28T10:36:35.647Z,2399
2019-01-28T10:40:03.535Z,2245
2019-01-28T10:43:32.396Z,2325
2019-01-28T10:47:00.298Z,2596
2019-01-28T10:50:28.187Z,3002
2019-01-28T10:53:57.120Z,3408
2019-01-28T10:57:24.995Z,3679
2019-01-28T11:00:52.884Z,4809
2019-01-28T11:04:20.773Z,5525
2019-01-28T11:07:48.647Z,5698
2019-01-28T11:11:16.567Z,6306
2019-01-28T11:14:44.440Z,5969
2019-01-28T11:18:12.424Z,6688
2019-01-28T11:21:40.276Z,6166
2019-01-28T11:25:08.532Z,6129
2019-01-28T11:28:36.359Z,4909
2019-01-28T11:32:04.373Z,4061
2019-01-28T11:35:32.284Z,4353
2019-01-28T11:39:01.141Z,5699
2019-01-28T11:42:29.010Z,6538
2019-01-28T11:45:56.815Z,6625
2019-01-28T11:49:24.727Z,6859
2019-01-28T11:52:52.577Z,6302
2019-01-28T11:56:20.470Z,5220
2019-01-28T11:59:48.361Z,4843
2019-01-28T12:03:16.248Z,4636
2019-01-28T12:06:44.140Z,3852
2019-01-28T12:10:12.066Z,3315
2019-01-28T12:13:39.938Z,3143
2019-01-28T12:17:07.865Z,3079
2019-01-28T12:20:35.995Z,3595
2019-01-28T12:24:04.122Z,3871
2019-01-28T12:27:32.705Z,4160
2019-01-28T12:31:00.598Z,4039
2019-01-28T12:34:28.480Z,4109
2019-01-28T12:37:57.213Z,3804
2019-01-28T12:41:25.919Z,3718
2019-01-28T12:44:53.845Z,22440
2019-01-28T12:48:23.048Z,8251
2019-01-28T12:51:51.632Z,12946
2019-01-28T12:55:19.578Z,12219
2019-01-28T12:58:47.475Z,7276
2019-01-28T13:02:16.380Z,5965
2019-01-28T13:05:44.311Z,5282
2019-01-28T13:09:14.065Z,4404
2019-01-28T13:12:41.190Z,3612
2019-01-28T13:16:09.111Z,3533
2019-01-28T13:19:38.016Z,2961
2019-01-28T13:23:05.921Z,2579
2019-01-28T13:26:33.821Z,2266
2019-01-28T13:30:01.728Z,2010
2019-01-28T13:33:29.661Z,1907
2019-01-28T13:36:57.570Z,1994
2019-01-28T13:40:25.475Z,2012
2019-01-28T13:43:53.388Z,1755
2019-01-28T13:47:21.286Z,1478
2019-01-28T13:50:49.160Z,1401
2019-01-28T13:54:17.058Z,1374
2019-01-28T13:57:44.958Z,1263
2019-01-28T14:01:12.867Z,1143
2019-01-28T14:04:40.769Z,1219
2019-01-28T14:08:09.670Z,1501
2019-01-28T14:11:37.570Z,1599
2019-01-28T14:15:05.468Z,1415
2019-01-28T14:18:33.388Z,1172
2019-01-28T14:22:01.276Z,1033
2019-01-28T14:25:29.167Z,889
2019-01-28T14:28:57.076Z,760
2019-01-28T14:32:25.001Z,650
2019-01-28T14:35:52.873Z,634
2019-01-28T14:39:20.766Z,577
2019-01-28T14:42:49.683Z,545
2019-01-28T14:46:17.582Z,507
2019-01-28T14:49:45.472Z,455
2019-01-28T14:53:16.355Z,423
2019-01-28T14:56:44.255Z,392
2019-01-28T15:00:12.156Z,373
2019-01-28T15:03:40.073Z,331
2019-01-28T15:07:08.960Z,291
2019-01-28T15:10:36.855Z,251
2019-01-28T15:14:04.793Z,204
2019-01-28T15:17:32.702Z,178
2019-01-28T15:21:00.588Z,157
2019-01-28T15:24:28.494Z,128
2019-01-28T15:27:56.398Z,103
2019-01-28T15:31:24.337Z,83
2019-01-28T15:34:52.225Z,67
2019-01-28T15:38:20.146Z,49
2019-01-28T15:41:48.022Z,31
2019-01-28T15:45:15.943Z,28
2019-01-28T15:48:43.844Z,19
2019-01-28T15:52:11.802Z,13
2019-01-28T15:55:39.705Z,8
2019-01-28T15:59:07.600Z,5
2019-01-28T16:02:35.465Z,3
2019-01-28T16:06:03.398Z,2
2019-01-28T16:09:32.304Z,1
2019-01-28T16:13:00.208Z,1
2019-01-28T16:16:28.103Z,0
2019-01-28T16:19:56.001Z,0
2019-01-28T16:23:23.910Z,0
2019-01-28T16:26:51.811Z,0
2019-01-28T16:30:19.704Z,0
2019-01-28T16:33:51.553Z,0
2019-01-28T16:37:19.440Z,0
2019-01-28T16:40:47.341Z,0
2019-01-28T16:44:15.281Z,0
2019-01-28T16:47:44.140Z,0
2019-01-28T16:51:12.056Z,0
2019-01-28T16:54:40.937Z,0
2019-01-28T16:58:09.822Z,0
2019-01-28T17:01:38.737Z,0
2019-01-28T17:05:06.632Z,0
2019-01-28T17:08:34.533Z,0
2019-01-28T17:12:02.455Z,0
2019-01-28T17:15:30.371Z,0
2019-01-28T17:18:58.307Z,0
2019-01-28T17:22:26.196Z,0
2019-01-28T17:25:54.102Z,0
2019-01-28T17:29:23.007Z,0
2019-01-28T17:32:50.894Z,0
2019-01-28T17:36:18.795Z,0
2019-01-28T17:39:46.699Z,0
2019-01-28T17:43:14.574Z,0
2019-01-28T17:46:42.452Z,0
2019-01-28T17:50:10.349Z,0
2019-01-28T17:53:38.309Z,0
2019-01-28T17:57:06.200Z,0
2019-01-28T18:00:35.155Z,0
2019-01-28T18:04:03.107Z,0
2019-01-28T18:07:30.981Z,0
2019-01-28T18:10:58.964Z,1
2019-01-28T18:14:27.035Z,0
2019-01-28T18:17:54.968Z,0
2019-01-28T18:21:23.876Z,0
2019-01-28T18:24:51.777Z,0
2019-01-28T18:28:19.708Z,0
2019-01-28T18:31:47.608Z,0
2019-01-28T18:35:15.521Z,0
2019-01-28T18:38:43.507Z,0
2019-01-28T18:42:11.357Z,0
2019-01-28T18:45:39.277Z,0
2019-01-28T18:49:07.216Z,0
2019-01-28T18:52:36.132Z,0
2019-01-28T18:56:04.067Z,0
2019-01-28T18:59:32.058Z,0
2019-01-28T19:03:00.975Z,0
2019-01-28T19:06:28.869Z,0
2019-01-28T19:09:59.776Z,0
2019-01-28T19:13:28.686Z,0
2019-01-28T19:16:56.576Z,0
2019-01-28T19:20:24.550Z,0
2019-01-28T19:23:52.424Z,0
2019-01-28T19:27:20.297Z,0
2019-01-28T19:30:48.253Z,0
2019-01-28T19:34:16.187Z,0
2019-01-28T19:37:44.085Z,0
2019-01-28T19:41:12.980Z,0
2019-01-28T19:44:40.901Z,0
2019-01-28T19:48:08.796Z,0
2019-01-28T19:51:36.767Z,0
2019-01-28T19:55:04.764Z,0
2019-01-28T19:58:32.779Z,0
2019-01-28T20:02:00.783Z,0
2019-01-28T20:05:28.688Z,0
2019-01-28T20:08:56.583Z,0
2019-01-28T20:12:24.489Z,0
2019-01-28T20:15:52.425Z,0
2019-01-28T20:19:20.311Z,0
2019-01-28T20:22:48.405Z,0
2019-01-28T20:26:16.259Z,0
2019-01-28T20:29:44.252Z,0
2019-01-28T20:33:13.180Z,0
2019-01-28T20:36:41.094Z,0
2019-01-28T20:40:10.023Z,0
2019-01-28T20:43:37.892Z,0
2019-01-28T20:47:05.866Z,0
2019-01-28T20:50:33.768Z,0
2019-01-28T20:54:01.730Z,0
2019-01-28T20:57:29.597Z,0
2019-01-28T21:00:57.489Z,0
2019-01-28T21:04:25.412Z,0
2019-01-28T21:07:53.319Z,0
2019-01-28T21:11:21.223Z,0
2019-01-28T21:14:49.141Z,0
2019-01-28T21:18:17.001Z,0
2019-01-28T21:21:44.942Z,0
2019-01-28T21:25:12.824Z,0
2019-01-28T21:28:40.723Z,0
2019-01-28T21:32:08.608Z,0
2019-01-28T21:35:36.506Z,0
2019-01-28T21:39:04.537Z,0
2019-01-28T21:42:32.459Z,0
2019-01-28T21:46:00.363Z,0
2019-01-28T21:49:28.236Z,0
2019-01-28T21:52:56.125Z,0
2019-01-28T21:56:24.038Z,0
2019-01-28T21:59:52.905Z,0
2019-01-28T22:03:20.809Z,0
2019-01-28T22:06:49.713Z,0
2019-01-28T22:10:17.615Z,0
2019-01-28T22:13:45.620Z,0
2019-01-28T22:17:13.520Z,0
2019-01-28T22:20:41.415Z,0
2019-01-28T22:24:10.366Z,0
2019-01-28T22:27:38.246Z,0
2019-01-28T22:31:06.129Z,0
2019-01-28T22:34:34.030Z,0
2019-01-28T22:38:01.922Z,0
2019-01-28T22:41:29.793Z,0
2019-01-28T22:44:58.690Z,0
2019-01-28T22:48:26.606Z,0
2019-01-28T22:51:54.494Z,0
2019-01-28T22:55:22.422Z,0
2019-01-28T22:58:50.322Z,0
